»·PEaware :: N732SG KSEE-KSBD

N732SG :: KSEE-KSBD

FLIGHT INFORMATION

Flight Status: Arrived
Operator: Privately registered:
United States
More flights under this callsign
Pilot: Scott G. (88)
Aircraft: CESSNA 172 SKYHAWK
(C172)
More flights by this aircraft type
Origin: KSEE Gillespie
United States
Destination: KSBD San Bernardino Intl
United States
More flights between these airports :: More routes between these airports
Route: +OCN V23 DANAH V363 POXKU V8 PDZ
File this flight plan on PilotEdge
Remarks: X-Plane 11 crashing often, FYI.
Altitude:
(Current/Filed)
6,000ft
Speed:
(Current/Filed)
110kts
Departed: 21-Jul-17 07:29 AM
Arrived: 21-Jul-17 08:31 AM
Distance/Time
Traveled:
78nm/1:02
Distance/Time
To Go:
Arrived

Flight Plot

Page will automatically refresh every two minutes.


Map Options




Map Legend


Flown Route
Filed Route
Departure Airport
Arrival Airport
Navaid (VOR, NDB)
Fix

Horizontal Profiles

Position Reports

Time Latitude Longitude Heading Altitude Ground
Speed
21-Jul-17 07:09 32.824921 -116.968918 14 392ft 0kts
21-Jul-17 07:10 32.824921 -116.968918 14 392ft 0kts
21-Jul-17 07:11 32.824921 -116.968918 14 392ft 0kts
21-Jul-17 07:12 32.824921 -116.968918 14 392ft 0kts
21-Jul-17 07:13 32.824921 -116.968918 14 392ft 0kts
21-Jul-17 07:14 32.824921 -116.968918 14 392ft 0kts
21-Jul-17 07:15 32.824921 -116.968918 14 392ft 0kts
21-Jul-17 07:16 32.824921 -116.968918 14 392ft 0kts
21-Jul-17 07:17 32.824921 -116.968918 14 392ft 0kts
21-Jul-17 07:18 32.824921 -116.968918 14 392ft 0kts
21-Jul-17 07:19 32.824921 -116.968918 14 392ft 0kts
21-Jul-17 07:20 32.824921 -116.968918 14 392ft 0kts
21-Jul-17 07:21 32.824921 -116.968918 14 392ft 0kts
21-Jul-17 07:22 32.824921 -116.968918 14 392ft 0kts
21-Jul-17 07:23 32.824921 -116.968918 14 392ft 0kts
21-Jul-17 07:24 32.824921 -116.968918 14 392ft 0kts
21-Jul-17 07:25 32.824921 -116.968918 14 392ft 0kts
21-Jul-17 07:26 32.824953 -116.968779 90 392ft 4kts
21-Jul-17 07:27 32.824669 -116.966177 40 392ft 2kts
21-Jul-17 07:28 32.825144 -116.964223 49 392ft 15kts
21-Jul-17 07:29 32.825387 -116.964005 5 392ft 0kts
21-Jul-17 07:30 32.825387 -116.964005 5 392ft 0kts
21-Jul-17 07:31 32.825356 -116.964038 292 392ft 3kts
21-Jul-17 07:32 32.828346 -116.974299 283 576ft 73kts
21-Jul-17 07:33 32.838969 -116.992646 354 1361ft 77kts
21-Jul-17 07:34 32.861865 -116.996054 352 2103ft 88kts
21-Jul-17 07:35 32.885687 -116.999755 352 2895ft 86kts
21-Jul-17 07:36 32.908698 -117.003287 352 3672ft 82kts
21-Jul-17 07:37 32.928107 -117.006953 326 4268ft 84kts
21-Jul-17 07:38 32.943385 -117.027766 311 4956ft 84kts
21-Jul-17 07:39 32.959344 -117.049136 312 5572ft 88kts
21-Jul-17 07:40 32.976488 -117.071703 312 6027ft 102kts
21-Jul-17 07:41 32.997110 -117.098655 312 6044ft 113kts
21-Jul-17 07:42 33.018260 -117.126314 312 6038ft 113kts
21-Jul-17 07:43 33.039479 -117.154056 312 6036ft 113kts
21-Jul-17 07:44 33.060654 -117.181713 312 6035ft 113kts
21-Jul-17 07:45 33.081964 -117.209545 312 6034ft 113kts
21-Jul-17 07:46 33.101725 -117.235344 312 6033ft 114kts
21-Jul-17 07:47 33.122799 -117.262846 312 6033ft 114kts
21-Jul-17 07:48 33.144210 -117.290808 312 6033ft 114kts
21-Jul-17 07:49 33.165638 -117.318789 312 6033ft 114kts
21-Jul-17 07:50 33.187064 -117.346772 312 6033ft 114kts
21-Jul-17 07:51 33.208435 -117.374680 312 6032ft 114kts
21-Jul-17 07:52 33.229774 -117.402565 312 6032ft 114kts
21-Jul-17 07:53 33.251806 -117.429676 315 6032ft 114kts
21-Jul-17 07:54 33.274472 -117.456134 315 6032ft 114kts
21-Jul-17 07:55 33.297122 -117.482537 315 6033ft 114kts
21-Jul-17 07:56 33.319724 -117.508896 315 6033ft 114kts
21-Jul-17 07:57 33.342425 -117.535379 315 6033ft 114kts
21-Jul-17 07:58 33.365170 -117.561932 315 6033ft 114kts
21-Jul-17 07:59 33.387911 -117.588503 315 6033ft 114kts
21-Jul-17 08:00 33.410601 -117.615038 315 6033ft 114kts
21-Jul-17 08:01 33.433270 -117.641572 315 6032ft 114kts
21-Jul-17 08:02 33.455525 -117.667659 315 6033ft 113kts
21-Jul-17 08:03 33.478113 -117.694077 318 6029ft 115kts
21-Jul-17 08:04 33.509461 -117.702056 352 6033ft 117kts
21-Jul-17 08:05 33.541981 -117.707758 352 6033ft 119kts
21-Jul-17 08:06 33.574480 -117.713273 352 6033ft 119kts
21-Jul-17 08:07 33.607183 -117.718668 351 6042ft 116kts
21-Jul-17 08:08 33.638926 -117.724084 351 6043ft 114kts
21-Jul-17 08:09 33.670632 -117.729458 351 6027ft 115kts
21-Jul-17 08:10 33.700595 -117.742114 338 6028ft 114kts
21-Jul-17 08:11 33.730083 -117.755874 338 6029ft 114kts
21-Jul-17 08:12 33.759650 -117.769764 338 6029ft 114kts
21-Jul-17 08:13 33.789796 -117.779810 358 6027ft 114kts
21-Jul-17 08:14 33.821864 -117.780823 357 6007ft 115kts
21-Jul-17 08:15 33.852494 -117.776071 55 6003ft 117kts
21-Jul-17 08:16 33.864109 -117.738364 70 5778ft 133kts
21-Jul-17 08:17 33.875644 -117.695431 71 4901ft 134kts
21-Jul-17 08:18 33.886499 -117.653177 72 4114ft 129kts
21-Jul-17 08:19 33.896346 -117.614715 72 4005ft 115kts
21-Jul-17 08:20 33.905703 -117.578094 72 4009ft 113kts
21-Jul-17 08:21 33.912267 -117.552373 72 4008ft 113kts
21-Jul-17 08:22 33.927123 -117.520102 43 4008ft 113kts
21-Jul-17 08:23 33.950518 -117.493235 42 3797ft 124kts
21-Jul-17 08:24 33.975962 -117.464200 42 3435ft 118kts
21-Jul-17 08:25 33.998208 -117.438785 42 3467ft 116kts
21-Jul-17 08:26 34.019234 -117.414752 42 3464ft 119kts
21-Jul-17 08:27 34.041544 -117.389083 51 3163ft 101kts
21-Jul-17 08:28 34.054682 -117.366239 57 2813ft 73kts
21-Jul-17 08:29 34.064034 -117.345510 72 2510ft 71kts
21-Jul-17 08:30 34.069517 -117.322353 71 2245ft 71kts
21-Jul-17 08:31 34.076004 -117.300404 72 1992ft 67kts
21-Jul-17 08:32 34.082099 -117.279212 71 1663ft 66kts
21-Jul-17 08:33 34.088307 -117.258205 70 1369ft 66kts
21-Jul-17 08:34 34.093177 -117.242246 54 1161ft 27kts
21-Jul-17 08:35 34.094480 -117.242041 358 1161ft 0kts
21-Jul-17 08:36 34.100336 -117.242012 359 1161ft 32kts
21-Jul-17 08:37 34.104073 -117.245935 354 1161ft 2kts
21-Jul-17 08:38 34.104147 -117.245922 1 1161ft 0kts

Navigation Log

Ident Type
Flight plan parsing failed, navigation log unavailable